Time;durP1;ratioP1;P1;durP2;ratioP2;P2;SDS_P1;SDS_P2;PMS_P1;PMS_P2;Temp;Humidity;BMP_temperature;BMP_pressure;BME280_temperature;BME280_humidity;BME280_pressure;Samples;Min_cycle;Max_cycle;Signal;HPM_P1;HPM_P2
2023/03/07 00:01:43;;;;;;;33.08;16.35;;;2.40;99.90;;;;;;5018388;28;20033;-73
2023/03/07 00:04:09;;;;;;;31.90;16.00;;;2.40;99.90;;;;;;5004202;28;20096;-73
2023/03/07 00:06:35;;;;;;;33.58;16.88;;;2.40;99.90;;;;;;5015923;28;20034;-72
2023/03/07 00:09:02;;;;;;;37.63;17.58;;;2.30;99.90;;;;;;5018582;28;20062;-73
2023/03/07 00:11:28;;;;;;;32.53;16.45;;;2.30;99.90;;;;;;5020253;28;20115;-74
2023/03/07 00:13:54;;;;;;;36.17;17.80;;;2.40;99.90;;;;;;5021569;28;20057;-72
2023/03/07 00:16:22;;;;;;;35.70;17.60;;;2.40;99.90;;;;;;5017657;28;20122;-72
2023/03/07 00:18:48;;;;;;;36.15;17.63;;;2.40;99.90;;;;;;5020243;28;20037;-74
2023/03/07 00:21:17;;;;;;;36.65;18.25;;;2.30;99.90;;;;;;5005735;28;20041;-74
2023/03/07 00:23:44;;;;;;;34.15;18.00;;;2.30;99.90;;;;;;5018967;28;20407;-72
2023/03/07 00:26:19;;;;;;;37.35;18.17;;;2.30;99.90;;;;;;5017210;28;20137;-74
2023/03/07 00:28:47;;;;;;;43.55;20.33;;;2.30;99.90;;;;;;5019009;28;20056;-74
2023/03/07 00:31:13;;;;;;;37.08;20.35;;;2.30;99.90;;;;;;5022512;28;20026;-74
2023/03/07 00:33:39;;;;;;;37.75;19.65;;;2.40;99.90;;;;;;5014948;28;20498;-74
2023/03/07 00:36:12;;;;;;;43.33;22.20;;;2.40;99.90;;;;;;5017724;28;20017;-72
2023/03/07 00:38:38;;;;;;;47.55;21.60;;;2.40;99.90;;;;;;5022189;28;20365;-72
2023/03/07 00:41:06;;;;;;;40.53;20.50;;;2.30;99.90;;;;;;5001809;28;20421;-74
2023/03/07 00:43:33;;;;;;;42.17;20.80;;;2.40;99.90;;;;;;5019191;28;20504;-72
2023/03/07 00:45:59;;;;;;;45.17;21.42;;;2.40;99.90;;;;;;5018152;28;20057;-72
2023/03/07 00:48:26;;;;;;;39.42;19.83;;;2.40;99.90;;;;;;5018523;28;20025;-74
2023/03/07 00:50:52;;;;;;;44.55;21.08;;;2.40;99.90;;;;;;5021157;28;20259;-73
2023/03/07 00:53:18;;;;;;;52.45;24.95;;;2.40;99.90;;;;;;5020165;28;20029;-71
2023/03/07 00:56:06;;;;;;;48.72;23.48;;;2.40;99.90;;;;;;5019745;28;20042;-74
2023/03/07 00:58:34;;;;;;;50.05;24.58;;;2.40;99.90;;;;;;5019417;28;20288;-73
2023/03/07 01:01:01;;;;;;;47.60;23.20;;;2.40;99.90;;;;;;5020583;28;20041;-74
2023/03/07 01:03:27;;;;;;;49.78;24.75;;;2.50;99.90;;;;;;5018886;28;20041;-73
2023/03/07 01:05:54;;;;;;;51.63;24.65;;;2.50;99.90;;;;;;5018682;28;20056;-74
2023/03/07 01:08:21;;;;;;;44.55;23.77;;;2.50;99.90;;;;;;5021289;28;20053;-74
2023/03/07 01:10:50;;;;;;;48.10;23.55;;;2.50;99.90;;;;;;5021861;28;20049;-74
2023/03/07 01:13:16;;;;;;;50.88;24.90;;;2.50;99.90;;;;;;5019235;28;20026;-74
2023/03/07 01:15:42;;;;;;;45.25;23.08;;;2.50;99.90;;;;;;5017043;28;20030;-74
2023/03/07 01:18:09;;;;;;;50.78;23.83;;;2.60;99.90;;;;;;5019181;28;20342;-73
2023/03/07 01:20:36;;;;;;;47.03;22.95;;;2.60;99.90;;;;;;5019231;28;20502;-73
2023/03/07 01:23:02;;;;;;;43.17;22.90;;;2.60;99.90;;;;;;5000539;28;20022;-75
2023/03/07 01:25:28;;;;;;;45.70;22.95;;;2.60;99.90;;;;;;5017718;28;20030;-73
2023/03/07 01:27:55;;;;;;;45.83;22.77;;;2.60;99.90;;;;;;5016304;28;20026;-74
2023/03/07 01:30:22;;;;;;;42.25;21.88;;;2.60;99.90;;;;;;5017280;28;20041;-74
2023/03/07 01:32:54;;;;;;;46.08;22.85;;;2.60;99.90;;;;;;5018078;28;20021;-74
2023/03/07 01:35:19;;;;;;;43.78;22.45;;;2.60;99.90;;;;;;5017095;28;20022;-73
2023/03/07 01:37:48;;;;;;;43.85;22.73;;;2.60;99.90;;;;;;5017267;28;20079;-74
2023/03/07 01:40:14;;;;;;;47.55;24.33;;;2.60;99.90;;;;;;5017975;28;20117;-74
2023/03/07 01:42:40;;;;;;;43.17;21.85;;;2.60;99.90;;;;;;5015791;28;20108;-73
2023/03/07 01:45:11;;;;;;;41.67;22.35;;;2.60;99.90;;;;;;5016954;28;20026;-74
2023/03/07 01:47:38;;;;;;;44.58;22.73;;;2.60;99.90;;;;;;5017248;28;20065;-75
2023/03/07 01:50:08;;;;;;;49.78;24.30;;;2.60;99.90;;;;;;5015516;28;20040;-74
2023/03/07 01:52:39;;;;;;;47.50;23.50;;;2.50;99.90;;;;;;5016427;28;20104;-74
2023/03/07 01:55:21;;;;;;;43.15;22.20;;;2.50;99.90;;;;;;5015428;28;20018;-73
2023/03/07 01:57:49;;;;;;;44.83;23.65;;;2.50;99.90;;;;;;5016379;28;20515;-73
2023/03/07 02:00:24;;;;;;;50.20;24.23;;;2.40;99.90;;;;;;5016496;28;20030;-73
2023/03/07 02:03:25;;;;;;;48.83;23.40;;;2.40;99.90;;;;;;5016772;28;20033;-74
2023/03/07 02:05:55;;;;;;;46.85;24.05;;;2.40;99.90;;;;;;5013179;28;20064;-75
2023/03/07 02:08:23;;;;;;;51.15;25.17;;;2.40;99.90;;;;;;5016610;28;20457;-74
2023/03/07 02:10:49;;;;;;;50.85;24.92;;;2.40;99.90;;;;;;5014593;28;20374;-74
2023/03/07 02:13:15;;;;;;;49.97;23.40;;;2.40;99.90;;;;;;5017119;28;20036;-74
2023/03/07 02:15:41;;;;;;;47.28;23.88;;;2.30;99.90;;;;;;5015758;28;20053;-74
2023/03/07 02:18:08;;;;;;;47.75;24.17;;;2.30;99.90;;;;;;5013020;28;20030;-73
2023/03/07 02:20:45;;;;;;;49.30;23.85;;;2.30;99.90;;;;;;5017500;28;20045;-75
2023/03/07 02:23:21;;;;;;;48.25;23.60;;;2.30;99.90;;;;;;5016496;28;20037;-74
2023/03/07 02:26:11;;;;;;;51.03;23.88;;;2.30;99.90;;;;;;5015102;28;20473;-74
2023/03/07 02:28:38;;;;;;;49.80;24.45;;;2.30;99.90;;;;;;5013929;28;20141;-73
2023/03/07 02:31:06;;;;;;;46.63;23.38;;;2.30;99.90;;;;;;5000869;28;20548;-73
2023/03/07 02:33:31;;;;;;;48.78;23.25;;;2.30;99.90;;;;;;5015688;28;20076;-74
2023/03/07 02:36:05;;;;;;;45.42;22.08;;;2.30;99.90;;;;;;4998039;28;20425;-73
2023/03/07 02:38:36;;;;;;;46.97;23.38;;;2.30;99.90;;;;;;4998905;28;20037;-73
2023/03/07 02:41:03;;;;;;;49.28;24.10;;;2.30;99.90;;;;;;5019357;28;20096;-73
2023/03/07 02:43:29;;;;;;;45.85;23.52;;;2.30;99.90;;;;;;5002126;28;20102;-74
2023/03/07 02:45:55;;;;;;;48.30;23.00;;;2.30;99.90;;;;;;5018737;28;20026;-75
2023/03/07 02:48:20;;;;;;;49.75;24.02;;;2.30;99.90;;;;;;5018512;28;20026;-73
2023/03/07 02:50:49;;;;;;;48.90;23.52;;;2.30;99.90;;;;;;5020470;28;20041;-73
2023/03/07 02:53:15;;;;;;;49.67;23.58;;;2.30;99.90;;;;;;5009088;28;20041;-73
2023/03/07 02:55:41;;;;;;;49.88;24.27;;;2.30;99.90;;;;;;5017804;28;20426;-74
2023/03/07 02:58:06;;;;;;;50.10;23.65;;;2.30;99.90;;;;;;5018612;28;20486;-73
2023/03/07 03:00:33;;;;;;;49.38;24.02;;;2.30;99.90;;;;;;5022164;28;20964;-73
2023/03/07 03:02:59;;;;;;;51.72;25.83;;;2.30;99.90;;;;;;5021754;28;20037;-73
2023/03/07 03:05:24;;;;;;;50.90;24.20;;;2.30;99.90;;;;;;5017120;28;20026;-72
2023/03/07 03:07:50;;;;;;;51.92;24.10;;;2.30;99.90;;;;;;5018217;28;20190;-74
2023/03/07 03:10:16;;;;;;;47.65;23.00;;;2.40;99.90;;;;;;5020207;28;20095;-74
2023/03/07 03:12:42;;;;;;;46.67;22.25;;;2.40;99.90;;;;;;5019358;28;20382;-73
2023/03/07 03:15:09;;;;;;;44.08;21.90;;;2.40;99.90;;;;;;5017942;28;20036;-72
2023/03/07 03:17:35;;;;;;;43.28;21.67;;;2.40;99.90;;;;;;5018389;28;20018;-73
2023/03/07 03:20:03;;;;;;;41.75;20.30;;;2.50;99.90;;;;;;5019739;28;20577;-73
2023/03/07 03:22:28;;;;;;;45.40;21.55;;;2.50;99.90;;;;;;5019398;28;20021;-74
2023/03/07 03:24:54;;;;;;;42.67;20.75;;;2.50;99.90;;;;;;5017753;28;20030;-73
2023/03/07 03:27:20;;;;;;;38.75;19.85;;;2.50;99.90;;;;;;5000629;28;20389;-74
2023/03/07 03:29:45;;;;;;;38.78;20.17;;;2.50;99.90;;;;;;5018770;28;20136;-73
2023/03/07 03:32:11;;;;;;;40.83;19.70;;;2.50;99.90;;;;;;5017441;28;20081;-73
2023/03/07 03:34:37;;;;;;;43.00;19.77;;;2.50;99.90;;;;;;5018525;28;20040;-72
2023/03/07 03:37:03;;;;;;;42.85;20.55;;;2.50;99.90;;;;;;5019100;28;20442;-74
2023/03/07 03:39:30;;;;;;;38.28;19.90;;;2.50;99.90;;;;;;5018031;28;20042;-74
2023/03/07 03:41:56;;;;;;;40.38;19.35;;;2.50;99.90;;;;;;5019457;28;20026;-72
2023/03/07 03:44:21;;;;;;;39.75;19.70;;;2.50;99.90;;;;;;5019320;28;20029;-74
2023/03/07 03:46:47;;;;;;;40.00;18.92;;;2.60;99.90;;;;;;5019631;28;20093;-73
2023/03/07 03:49:15;;;;;;;39.53;19.25;;;2.60;99.90;;;;;;5020142;28;20179;-71
2023/03/07 03:51:41;;;;;;;39.55;18.75;;;2.60;99.90;;;;;;5019290;28;20074;-72
2023/03/07 03:54:07;;;;;;;41.53;20.00;;;2.60;99.90;;;;;;5018086;28;20029;-73
2023/03/07 03:56:33;;;;;;;40.78;18.67;;;2.60;99.90;;;;;;5019609;28;20045;-74
2023/03/07 03:58:58;;;;;;;38.83;18.67;;;2.60;99.90;;;;;;5018499;28;20056;-73
2023/03/07 04:01:26;;;;;;;36.60;19.00;;;2.60;99.90;;;;;;5019500;28;20087;-72
2023/03/07 04:03:52;;;;;;;37.90;18.25;;;2.60;99.90;;;;;;5019938;28;20090;-72
2023/03/07 04:06:22;;;;;;;36.92;18.55;;;2.60;99.90;;;;;;5019458;28;20056;-72
2023/03/07 04:08:48;;;;;;;41.22;18.48;;;2.60;99.90;;;;;;5019194;28;20021;-72
2023/03/07 04:11:14;;;;;;;40.35;18.38;;;2.60;99.90;;;;;;5020807;28;20180;-73
2023/03/07 04:13:40;;;;;;;44.08;19.42;;;2.70;99.90;;;;;;5020821;28;20038;-72
2023/03/07 04:16:07;;;;;;;36.10;18.20;;;2.70;99.90;;;;;;5018781;28;20022;-73
2023/03/07 04:18:33;;;;;;;31.83;15.73;;;2.70;99.90;;;;;;5020205;28;20025;-73
2023/03/07 04:20:59;;;;;;;40.17;18.08;;;2.70;99.90;;;;;;5017232;28;20038;-72
2023/03/07 04:23:25;;;;;;;34.50;15.95;;;2.70;99.90;;;;;;5003642;28;20103;-71
2023/03/07 04:25:56;;;;;;;34.05;15.60;;;2.70;99.90;;;;;;5020096;28;20029;-74
2023/03/07 04:28:25;;;;;;;35.10;14.63;;;2.70;99.90;;;;;;5018978;28;20346;-72
2023/03/07 04:30:52;;;;;;;30.70;13.57;;;2.80;99.90;;;;;;5018009;28;20061;-72
2023/03/07 04:33:19;;;;;;;26.88;13.43;;;2.80;99.90;;;;;;5020944;28;20034;-72
2023/03/07 04:35:44;;;;;;;31.10;11.52;;;2.80;99.90;;;;;;5004527;28;20036;-72
2023/03/07 04:38:11;;;;;;;25.33;11.25;;;2.80;99.90;;;;;;5021344;28;20060;-74
2023/03/07 04:40:36;;;;;;;23.25;10.15;;;2.80;99.90;;;;;;5020449;28;20034;-73
2023/03/07 04:43:04;;;;;;;23.30;9.82;;;2.90;99.90;;;;;;5019676;28;20548;-73
2023/03/07 04:45:33;;;;;;;19.08;8.55;;;2.90;99.90;;;;;;5018161;28;20580;-72
2023/03/07 04:47:59;;;;;;;18.60;8.27;;;2.90;99.90;;;;;;5025567;28;20218;-73
2023/03/07 04:50:24;;;;;;;27.83;8.70;;;2.90;99.90;;;;;;5028538;28;20403;-74
2023/03/07 04:52:50;;;;;;;18.92;9.10;;;2.90;99.90;;;;;;5021527;28;20025;-75
2023/03/07 04:55:16;;;;;;;15.77;7.47;;;2.90;99.90;;;;;;5019362;28;20097;-73
2023/03/07 04:57:42;;;;;;;19.92;7.38;;;2.90;99.90;;;;;;5019203;28;20037;-74
2023/03/07 05:00:09;;;;;;;17.60;6.95;;;2.90;99.90;;;;;;5006910;28;20029;-73
2023/03/07 05:02:36;;;;;;;17.63;6.82;;;2.90;99.90;;;;;;5023084;28;20121;-72
2023/03/07 05:05:02;;;;;;;11.48;5.45;;;2.90;99.90;;;;;;5027655;28;20022;-74
2023/03/07 05:07:31;;;;;;;18.48;5.70;;;2.90;99.90;;;;;;5017846;28;20029;-74
2023/03/07 05:09:57;;;;;;;10.05;3.70;;;2.90;99.90;;;;;;5018517;28;20099;-74
2023/03/07 05:12:24;;;;;;;15.07;5.75;;;3.00;99.90;;;;;;5025983;28;20025;-74
2023/03/07 05:14:50;;;;;;;9.88;3.33;;;3.00;99.90;;;;;;5007828;28;20407;-74
2023/03/07 05:17:15;;;;;;;7.57;2.35;;;3.00;99.90;;;;;;5019964;28;20104;-75
2023/03/07 05:19:41;;;;;;;17.73;3.65;;;3.10;99.90;;;;;;5018084;28;20041;-72
2023/03/07 05:22:07;;;;;;;7.28;2.80;;;3.10;99.90;;;;;;5002784;28;20021;-74
2023/03/07 05:24:34;;;;;;;12.35;3.60;;;3.10;99.90;;;;;;5020181;28;20602;-74
2023/03/07 05:27:00;;;;;;;9.88;3.38;;;3.10;99.90;;;;;;5002588;28;20038;-75
2023/03/07 05:29:26;;;;;;;14.20;3.30;;;3.10;99.90;;;;;;5020989;28;20026;-72
2023/03/07 05:31:52;;;;;;;9.57;2.15;;;3.10;99.90;;;;;;5019840;28;20083;-73
2023/03/07 05:34:17;;;;;;;8.00;3.20;;;3.20;99.90;;;;;;5017843;28;20545;-74
2023/03/07 05:36:44;;;;;;;6.97;2.22;;;3.20;99.90;;;;;;5016898;28;20120;-74
2023/03/07 05:39:10;;;;;;;8.90;1.95;;;3.20;99.90;;;;;;5020852;28;20117;-72
2023/03/07 05:41:36;;;;;;;8.90;2.97;;;3.20;99.90;;;;;;5020243;28;20056;-73
2023/03/07 05:44:02;;;;;;;6.20;1.85;;;3.20;99.90;;;;;;5020509;28;20025;-74
2023/03/07 05:46:29;;;;;;;8.18;2.85;;;3.20;99.90;;;;;;5019330;28;20018;-74
2023/03/07 05:48:54;;;;;;;10.88;2.20;;;3.20;99.90;;;;;;5020120;28;20389;-73
2023/03/07 05:51:20;;;;;;;11.50;1.90;;;3.20;99.90;;;;;;5024211;28;20026;-73
2023/03/07 05:53:46;;;;;;;8.48;2.33;;;3.20;99.90;;;;;;5019574;28;20022;-75
2023/03/07 05:56:12;;;;;;;9.13;1.75;;;3.20;99.90;;;;;;5019665;28;20026;-73
2023/03/07 05:58:39;;;;;;;7.70;1.45;;;3.20;99.90;;;;;;5019040;28;20026;-73
2023/03/07 06:01:05;;;;;;;7.63;1.48;;;3.20;99.90;;;;;;5019274;28;20102;-73
2023/03/07 06:03:31;;;;;;;8.70;2.00;;;3.20;99.90;;;;;;5016787;28;20610;-74
2023/03/07 06:05:57;;;;;;;7.80;1.70;;;3.20;99.90;;;;;;5019110;28;20034;-74
2023/03/07 06:08:23;;;;;;;5.97;1.15;;;3.20;99.90;;;;;;5020335;28;20022;-74
2023/03/07 06:10:52;;;;;;;7.40;1.33;;;3.20;99.90;;;;;;5019145;28;20457;-72
2023/03/07 06:13:20;;;;;;;9.77;1.98;;;3.20;99.90;;;;;;5018537;28;20029;-72
2023/03/07 06:15:51;;;;;;;12.38;1.38;;;3.30;99.90;;;;;;5011545;28;20028;-74
2023/03/07 06:18:17;;;;;;;8.27;1.77;;;3.30;99.90;;;;;;5010645;28;20029;-73
2023/03/07 06:20:43;;;;;;;6.97;1.42;;;3.30;99.90;;;;;;5025080;28;20037;-73
2023/03/07 06:23:08;;;;;;;6.78;1.63;;;3.30;99.90;;;;;;5024674;28;20397;-73
2023/03/07 06:25:35;;;;;;;9.15;1.60;;;3.30;99.90;;;;;;5025188;28;20033;-73
2023/03/07 06:28:00;;;;;;;9.13;1.40;;;3.30;99.90;;;;;;5023722;28;20026;-72
2023/03/07 06:30:27;;;;;;;8.43;1.50;;;3.30;99.90;;;;;;5007206;28;20026;-73
2023/03/07 06:32:53;;;;;;;11.65;2.13;;;3.30;99.90;;;;;;5024182;28;20018;-74
2023/03/07 06:35:19;;;;;;;11.85;1.50;;;3.30;99.90;;;;;;5023558;28;20180;-73
2023/03/07 06:37:45;;;;;;;6.15;1.10;;;3.40;99.90;;;;;;5023463;28;20394;-74
2023/03/07 06:40:11;;;;;;;8.30;1.65;;;3.40;99.90;;;;;;5023649;28;20411;-73
2023/03/07 06:42:37;;;;;;;8.60;1.75;;;3.40;99.90;;;;;;5023465;28;20022;-73
2023/03/07 06:45:03;;;;;;;5.15;1.60;;;3.40;99.90;;;;;;5021884;28;20029;-71
2023/03/07 06:47:30;;;;;;;7.93;1.20;;;3.40;99.90;;;;;;5024382;28;20022;-74
2023/03/07 06:49:56;;;;;;;10.32;1.38;;;3.40;99.90;;;;;;5026425;28;20048;-75
2023/03/07 06:52:22;;;;;;;2.97;1.08;;;3.40;99.90;;;;;;5020717;28;20113;-75
2023/03/07 06:54:47;;;;;;;7.43;1.00;;;3.40;99.90;;;;;;5006917;28;20034;-74
2023/03/07 06:57:13;;;;;;;11.32;1.80;;;3.50;99.90;;;;;;5028646;28;20026;-74
2023/03/07 06:59:39;;;;;;;8.55;1.30;;;3.50;99.90;;;;;;5024180;28;20037;-74
2023/03/07 07:02:06;;;;;;;7.00;1.35;;;3.50;99.90;;;;;;5027051;28;20029;-73
2023/03/07 07:04:32;;;;;;;7.85;0.98;;;3.50;99.90;;;;;;5025507;28;20100;-72
2023/03/07 07:06:58;;;;;;;6.82;1.10;;;3.50;99.90;;;;;;5024520;28;20065;-72
2023/03/07 07:09:24;;;;;;;9.48;1.45;;;3.50;99.90;;;;;;5024157;28;20127;-73
2023/03/07 07:11:50;;;;;;;7.10;1.30;;;3.50;99.90;;;;;;5024793;28;20132;-73
2023/03/07 07:14:15;;;;;;;5.75;1.17;;;3.50;99.90;;;;;;5024723;28;20029;-74
2023/03/07 07:16:41;;;;;;;5.72;2.58;;;3.50;99.90;;;;;;5023653;28;20589;-73
2023/03/07 07:19:08;;;;;;;22.92;2.33;;;3.60;99.90;;;;;;5023413;28;20025;-73
2023/03/07 07:21:34;;;;;;;7.97;1.10;;;3.60;99.90;;;;;;5030965;28;20033;-73
2023/03/07 07:24:00;;;;;;;7.05;1.23;;;3.60;99.90;;;;;;5026362;28;20030;-73
2023/03/07 07:26:26;;;;;;;8.15;1.35;;;3.60;99.90;;;;;;5021137;28;20034;-73
2023/03/07 07:28:52;;;;;;;7.97;1.38;;;3.60;99.90;;;;;;5022340;28;20481;-72
2023/03/07 07:31:18;;;;;;;7.70;0.88;;;3.60;99.90;;;;;;5006711;28;20021;-74
2023/03/07 07:33:45;;;;;;;10.63;2.45;;;3.70;99.90;;;;;;5025624;28;20032;-73
2023/03/07 07:36:11;;;;;;;8.43;1.92;;;3.70;99.90;;;;;;5022070;28;20511;-73
2023/03/07 07:38:36;;;;;;;5.57;1.17;;;3.70;99.90;;;;;;5024285;28;20025;-74
2023/03/07 07:41:02;;;;;;;10.48;1.33;;;3.70;99.90;;;;;;5022407;28;20378;-72
2023/03/07 07:43:28;;;;;;;11.57;1.23;;;3.70;99.90;;;;;;5002589;28;20026;-74
2023/03/07 07:45:54;;;;;;;4.40;1.20;;;3.80;99.90;;;;;;5015847;28;20103;-74
2023/03/07 07:48:20;;;;;;;5.65;0.95;;;3.80;99.90;;;;;;5021100;28;20037;-74
2023/03/07 07:50:46;;;;;;;9.73;1.75;;;3.80;99.90;;;;;;5005790;28;20105;-74
2023/03/07 07:53:12;;;;;;;9.00;1.63;;;3.80;99.90;;;;;;5001747;28;20086;-73
2023/03/07 07:55:38;;;;;;;9.25;1.40;;;3.90;99.90;;;;;;5019699;28;20029;-74
2023/03/07 07:58:04;;;;;;;8.45;1.40;;;3.90;99.90;;;;;;5004683;28;20026;-72
2023/03/07 08:00:30;;;;;;;9.23;1.30;;;3.90;99.90;;;;;;5024601;28;20026;-72
2023/03/07 08:02:57;;;;;;;11.02;2.03;;;3.90;99.90;;;;;;5019260;28;20517;-72
2023/03/07 08:05:23;;;;;;;8.25;1.17;;;3.90;99.90;;;;;;5017930;28;20469;-72
2023/03/07 08:07:49;;;;;;;10.30;1.77;;;3.90;99.90;;;;;;5020390;28;20029;-72
2023/03/07 08:10:16;;;;;;;8.15;1.85;;;3.90;99.90;;;;;;5001778;28;20379;-73
2023/03/07 08:12:44;;;;;;;9.93;1.50;;;4.00;99.90;;;;;;5037190;28;20086;-73
2023/03/07 08:15:10;;;;;;;9.15;1.50;;;4.00;99.90;;;;;;5018103;28;20026;-73
2023/03/07 08:17:36;;;;;;;4.03;1.30;;;4.10;99.90;;;;;;5018210;28;20028;-74
2023/03/07 08:20:07;;;;;;;6.25;1.45;;;4.10;99.90;;;;;;5000867;28;20409;-74
2023/03/07 08:22:34;;;;;;;9.68;1.42;;;4.10;99.90;;;;;;5019133;28;20026;-73
2023/03/07 08:24:59;;;;;;;8.60;1.30;;;4.10;99.90;;;;;;5016834;28;20030;-73
2023/03/07 08:27:27;;;;;;;9.57;1.90;;;4.00;99.90;;;;;;5017588;28;20080;-73
2023/03/07 08:29:53;;;;;;;5.25;1.00;;;4.00;99.90;;;;;;5017884;28;20402;-73
2023/03/07 08:32:18;;;;;;;11.20;1.10;;;4.00;99.90;;;;;;5016833;28;20030;-73
2023/03/07 08:34:44;;;;;;;6.10;1.98;;;4.00;99.90;;;;;;5018345;28;20045;-74
2023/03/07 08:37:10;;;;;;;16.17;2.10;;;4.00;99.90;;;;;;5018921;28;20509;-72
2023/03/07 08:39:36;;;;;;;11.10;2.45;;;4.00;99.90;;;;;;5021426;28;20036;-73
2023/03/07 08:42:01;;;;;;;10.85;1.50;;;4.00;99.90;;;;;;5018134;28;20033;-72
2023/03/07 08:44:27;;;;;;;10.52;1.38;;;4.10;99.90;;;;;;5020721;28;20516;-74
2023/03/07 08:46:53;;;;;;;8.75;1.63;;;4.10;99.90;;;;;;5016719;28;20023;-74
2023/03/07 08:49:19;;;;;;;11.98;1.75;;;4.20;99.90;;;;;;5016606;28;20474;-74
2023/03/07 08:51:47;;;;;;;10.07;1.63;;;4.20;99.90;;;;;;5019228;28;20028;-73
2023/03/07 08:54:13;;;;;;;13.00;1.73;;;4.20;99.90;;;;;;5019297;28;20024;-74
2023/03/07 08:56:39;;;;;;;7.15;1.40;;;4.20;99.90;;;;;;5017000;28;20025;-73
2023/03/07 08:59:05;;;;;;;9.18;1.67;;;4.10;99.90;;;;;;5018391;28;20058;-74
2023/03/07 09:01:30;;;;;;;11.55;1.52;;;4.10;99.90;;;;;;5016126;28;20041;-74
2023/03/07 09:03:56;;;;;;;12.63;1.60;;;4.00;99.90;;;;;;5016891;28;20425;-74
2023/03/07 09:06:22;;;;;;;10.25;1.70;;;4.00;99.90;;;;;;5017230;28;20039;-74
2023/03/07 09:08:49;;;;;;;20.52;2.03;;;4.00;99.90;;;;;;5015594;28;20032;-74
2023/03/07 09:11:16;;;;;;;13.40;2.28;;;4.00;99.90;;;;;;5017218;28;20068;-72
2023/03/07 09:13:42;;;;;;;6.32;1.45;;;4.00;99.90;;;;;;5027110;28;20102;-73
2023/03/07 09:16:08;;;;;;;9.27;1.35;;;4.10;99.90;;;;;;5013367;28;20101;-72
2023/03/07 09:18:35;;;;;;;16.67;2.10;;;4.10;99.90;;;;;;5017101;28;20191;-73
2023/03/07 09:21:02;;;;;;;9.35;1.35;;;4.10;99.90;;;;;;5021337;28;20037;-72
2023/03/07 09:23:28;;;;;;;13.00;2.05;;;4.20;99.90;;;;;;5019154;28;20374;-72
2023/03/07 09:25:58;;;;;;;11.32;1.90;;;4.10;99.90;;;;;;5016999;28;20184;-74
2023/03/07 09:28:23;;;;;;;10.95;2.22;;;4.10;99.90;;;;;;5016704;28;20112;-74
2023/03/07 09:30:49;;;;;;;5.43;1.35;;;4.10;99.90;;;;;;5001315;28;20533;-74
2023/03/07 09:33:15;;;;;;;9.27;1.58;;;4.20;99.90;;;;;;5018827;28;20018;-73
2023/03/07 09:35:41;;;;;;;12.10;2.17;;;4.20;99.90;;;;;;5018377;28;20029;-74
2023/03/07 09:38:07;;;;;;;10.32;2.38;;;4.20;99.90;;;;;;5017247;28;20049;-74
2023/03/07 09:40:33;;;;;;;9.98;1.25;;;4.30;99.90;;;;;;5021349;28;20512;-72
2023/03/07 09:43:14;;;;;;;9.02;1.70;;;4.30;99.90;;;;;;5017407;28;20105;-72
2023/03/07 09:45:58;;;;;;;;;;;4.40;99.90;;;;;;5021491;28;20037;-72
2023/03/07 09:49:00;;;;;;;8.65;1.33;;;4.40;99.90;;;;;;5017199;28;19913;-73
2023/03/07 09:51:41;;;;;;;9.30;1.38;;;4.50;99.90;;;;;;5017612;28;20037;-72
2023/03/07 09:54:22;;;;;;;7.68;1.60;;;4.50;99.90;;;;;;5014780;28;20346;-72
2023/03/07 09:56:55;;;;;;;9.80;1.30;;;4.40;99.90;;;;;;5018291;28;20177;-74
2023/03/07 09:59:35;;;;;;;8.48;1.58;;;4.40;99.90;;;;;;5019103;28;20029;-72
2023/03/07 10:02:23;;;;;;;7.70;1.60;;;4.40;99.90;;;;;;5020108;28;20021;-73
2023/03/07 10:04:58;;;;;;;8.70;1.45;;;4.40;99.90;;;;;;5020055;28;20121;-73
2023/03/07 10:07:26;;;;;;;6.53;1.15;;;4.40;99.90;;;;;;5022999;28;20121;-74
2023/03/07 10:10:04;;;;;;;4.25;1.30;;;4.40;99.90;;;;;;5018441;28;20037;-74
2023/03/07 10:13:07;;;;;;;7.68;1.35;;;4.40;99.90;;;;;;5017615;28;20032;-74
2023/03/07 10:15:44;;;;;;;2.15;0.90;;;4.40;99.90;;;;;;5015182;28;20121;-74
2023/03/07 10:19:02;;;;;;;4.63;0.88;;;4.50;99.90;;;;;;5005934;28;20052;-74
2023/03/07 10:21:31;;;;;;;7.65;0.98;;;4.50;99.90;;;;;;5013168;28;20084;-73
2023/03/07 10:24:37;;;;;;;5.22;1.02;;;4.50;99.90;;;;;;5016390;28;20032;-72
2023/03/07 10:27:14;;;;;;;7.40;0.93;;;4.40;99.90;;;;;;5017110;28;20083;-75
2023/03/07 10:29:52;;;;;;;13.20;1.15;;;4.20;99.90;;;;;;5017594;28;20030;-73
2023/03/07 10:32:33;;;;;;;11.27;1.98;;;4.00;99.90;;;;;;4999563;28;20108;-72
2023/03/07 10:35:16;;;;;;;6.60;1.00;;;3.80;99.90;;;;;;5027677;28;20018;-72
2023/03/07 10:37:43;;;;;;;5.15;1.27;;;3.80;99.90;;;;;;5022291;28;20026;-72
2023/03/07 10:40:41;;;;;;;6.63;1.20;;;3.80;99.90;;;;;;5002296;28;20030;-72
2023/03/07 10:43:30;;;;;;;8.02;1.40;;;3.90;99.90;;;;;;5019319;28;20124;-72
2023/03/07 10:46:01;;;;;;;11.23;1.45;;;4.00;99.90;;;;;;5017550;28;20057;-72
2023/03/07 10:48:28;;;;;;;;;;;4.10;99.90;;;;;;5018935;28;20390;-73
2023/03/07 10:51:11;;;;;;;7.88;1.40;;;4.20;99.90;;;;;;5017029;28;20385;-73
2023/03/07 10:53:38;;;;;;;11.68;1.20;;;4.30;99.90;;;;;;5019022;28;20033;-75
2023/03/07 10:56:16;;;;;;;10.55;1.30;;;4.40;99.90;;;;;;5017541;28;20449;-75
2023/03/07 10:59:08;;;;;;;8.90;1.55;;;4.40;99.90;;;;;;5021323;28;20029;-75
2023/03/07 11:01:35;;;;;;;9.57;1.30;;;4.50;99.90;;;;;;5023567;28;20052;-73
2023/03/07 11:04:20;;;;;;;11.63;1.30;;;4.50;99.90;;;;;;5022657;28;20030;-73
2023/03/07 11:06:53;;;;;;;7.45;1.30;;;4.60;99.90;;;;;;5022570;28;20037;-73
2023/03/07 11:09:34;;;;;;;10.32;1.08;;;4.50;99.90;;;;;;5026603;28;20022;-72
2023/03/07 11:12:09;;;;;;;22.05;2.20;;;4.50;99.90;;;;;;5025501;28;20223;-73
2023/03/07 11:14:58;;;;;;;6.60;1.60;;;4.40;99.90;;;;;;5018193;28;20032;-73
2023/03/07 11:17:42;;;;;;;9.48;1.23;;;4.40;99.90;;;;;;5025634;28;20100;-72
2023/03/07 11:20:44;;;;;;;4.32;1.30;;;4.60;99.90;;;;;;5024135;28;20135;-72
2023/03/07 11:23:30;;;;;;;7.72;1.85;;;4.90;99.90;;;;;;5006638;28;20308;-73
2023/03/07 11:26:21;;;;;;;7.05;1.60;;;5.20;99.90;;;;;;5024191;28;20026;-72
2023/03/07 11:28:47;;;;;;;7.47;1.55;;;5.50;99.90;;;;;;5004649;28;20033;-73
2023/03/07 11:31:33;;;;;;;9.25;1.77;;;5.70;99.90;;;;;;5019457;28;20048;-73
2023/03/07 11:34:01;;;;;;;7.45;2.08;;;5.90;99.90;;;;;;5017296;28;20018;-73
2023/03/07 11:36:33;;;;;;;14.95;2.58;;;6.10;99.90;;;;;;5019352;28;20023;-75
2023/03/07 11:39:02;;;;;;;9.00;1.77;;;5.90;99.90;;;;;;5017200;28;20292;-74
2023/03/07 11:41:38;;;;;;;10.75;1.55;;;5.70;99.90;;;;;;5024107;28;20528;-73
2023/03/07 11:44:29;;;;;;;7.75;1.65;;;5.50;99.90;;;;;;5023321;28;20112;-72
2023/03/07 11:47:19;;;;;;;8.00;1.35;;;5.50;99.90;;;;;;5023237;28;20025;-72
2023/03/07 11:50:03;;;;;;;5.43;1.10;;;5.70;99.90;;;;;;5019692;28;20037;-74
2023/03/07 11:52:51;;;;;;;6.95;1.20;;;5.90;99.90;;;;;;5030122;28;20026;-75
2023/03/07 11:55:32;;;;;;;8.07;1.05;;;6.20;99.90;;;;;;5025274;28;20033;-75
2023/03/07 11:58:20;;;;;;;13.43;2.13;;;6.30;99.90;;;;;;5009218;28;20021;-72
2023/03/07 12:00:57;;;;;;;7.90;1.48;;;6.50;99.90;;;;;;5017627;28;20109;-74
2023/03/07 12:03:55;;;;;;;10.57;1.45;;;6.30;99.00;;;;;;5020705;28;20049;-73
2023/03/07 12:06:59;;;;;;;7.40;1.30;;;6.20;93.00;;;;;;5018104;28;20080;-74
2023/03/07 12:09:50;;;;;;;7.03;1.15;;;6.00;84.90;;;;;;5018136;28;20128;-74
2023/03/07 12:12:43;;;;;;;10.02;1.42;;;5.50;81.90;;;;;;5002762;28;20390;-74
2023/03/07 12:15:22;;;;;;;9.45;1.35;;;5.40;85.00;;;;;;5020256;28;20057;-73
2023/03/07 12:18:14;;;;;;;10.07;1.38;;;5.30;80.50;;;;;;5019965;28;20056;-74
2023/03/07 12:21:18;;;;;;;5.47;1.10;;;5.30;82.70;;;;;;5017654;28;20037;-74
2023/03/07 12:23:52;;;;;;;5.97;1.00;;;5.40;85.20;;;;;;5019040;28;20486;-73
2023/03/07 12:26:45;;;;;;;6.57;1.20;;;5.40;83.40;;;;;;5020377;28;20056;-73
2023/03/07 12:29:29;;;;;;;7.47;1.25;;;5.40;84.10;;;;;;5002846;28;20370;-72
2023/03/07 12:31:59;;;;;;;3.38;0.82;;;5.50;85.80;;;;;;5017746;28;20578;-72
2023/03/07 12:34:43;;;;;;;6.72;1.60;;;5.50;81.50;;;;;;5019107;28;20397;-74
2023/03/07 12:37:17;;;;;;;2.03;0.88;;;5.50;82.60;;;;;;5019045;28;20022;-74
2023/03/07 12:39:54;;;;;;;7.53;0.90;;;5.50;80.00;;;;;;5019054;28;20110;-74
2023/03/07 12:42:32;;;;;;;14.95;1.40;;;5.40;79.50;;;;;;5021172;28;20030;-73
2023/03/07 12:45:09;;;;;;;3.65;1.10;;;5.30;79.30;;;;;;5020818;28;20072;-74
2023/03/07 12:47:47;;;;;;;7.90;1.13;;;5.20;82.70;;;;;;5017147;28;20030;-74
2023/03/07 12:50:30;;;;;;;8.02;1.35;;;5.20;83.90;;;;;;5018178;28;20025;-72
2023/03/07 12:53:24;;;;;;;7.72;1.13;;;5.30;80.80;;;;;;5017260;28;20033;-72
2023/03/07 12:55:55;;;;;;;4.88;1.23;;;5.50;83.50;;;;;;5018866;28;20053;-74
2023/03/07 12:58:37;;;;;;;;;;;5.70;83.10;;;;;;5017499;28;20029;-74
2023/03/07 13:01:13;;;;;;;12.40;1.45;;;5.70;79.30;;;;;;5019513;28;20387;-72
2023/03/07 13:03:57;;;;;;;7.00;1.10;;;5.70;79.30;;;;;;5018517;28;20397;-74
2023/03/07 13:06:24;;;;;;;7.10;0.80;;;5.60;76.90;;;;;;5006756;28;20037;-72